Time;durP1;ratioP1;P1;durP2;ratioP2;P2;SDS_P1;SDS_P2;PMS_P1;PMS_P2;Temp;Humidity;BMP_temperature;BMP_pressure;BME280_temperature;BME280_humidity;BME280_pressure;Samples;Min_cycle;Max_cycle;Signal;HPM_P1;HPM_P2
2022/05/12 00:03:50;;;;;;;1.40;0.70;;;;;;;19.58;69.94;97702.19;15275969;19;20011;-58
2022/05/12 00:08:57;;;;;;;1.63;0.70;;;;;;;19.61;69.31;97696.25;15291877;19;20018;-58
2022/05/12 00:14:03;;;;;;;1.88;0.80;;;;;;;19.47;71.17;97684.72;15285274;19;20007;-58
2022/05/12 00:19:08;;;;;;;3.50;0.80;;;;;;;19.38;72.32;97686.16;15276712;19;20065;-59
2022/05/12 00:24:16;;;;;;;3.05;0.70;;;;;;;19.43;70.90;97688.19;15277776;19;20018;-56
2022/05/12 00:29:21;;;;;;;2.65;0.93;;;;;;;19.44;70.51;97681.66;15286686;19;20026;-58
2022/05/12 00:34:26;;;;;;;2.45;0.80;;;;;;;19.56;68.94;97683.31;15290168;19;20031;-59
2022/05/12 00:39:35;;;;;;;3.30;0.90;;;;;;;19.66;67.18;97676.41;15289414;19;20015;-59
2022/05/12 00:44:40;;;;;;;3.38;0.82;;;;;;;19.69;66.44;97675.94;15294211;19;20011;-58
2022/05/12 00:49:45;;;;;;;1.58;0.75;;;;;;;19.71;66.37;97674.63;15298306;19;20010;-56
2022/05/12 00:54:58;;;;;;;2.08;0.73;;;;;;;19.69;66.21;97674.06;15298946;19;20831;-59
2022/05/12 01:00:06;;;;;;;10.65;0.95;;;;;;;19.62;65.70;97677.97;15288894;19;20977;-59
2022/05/12 01:05:12;;;;;;;1.88;0.63;;;;;;;19.75;63.25;97680.47;15300055;19;20034;-55
2022/05/12 01:10:20;;;;;;;1.63;0.80;;;;;;;19.88;61.16;97695.78;15294840;19;20481;-55
2022/05/12 01:15:27;;;;;;;1.52;0.70;;;;;;;19.95;59.13;97682.00;15294171;19;20396;-55
2022/05/12 01:20:33;;;;;;;1.88;0.77;;;;;;;20.02;58.02;97694.47;15293691;19;20027;-60
2022/05/12 01:25:41;;;;;;;1.02;0.55;;;;;;;19.93;57.00;97695.91;15293121;19;20013;-57
2022/05/12 01:30:46;;;;;;;1.60;0.85;;;;;;;20.05;56.51;97706.00;15287705;19;20039;-56
2022/05/12 01:35:51;;;;;;;3.10;0.80;;;;;;;20.02;55.71;97713.63;15295953;19;20034;-58
2022/05/12 01:40:59;;;;;;;1.75;0.70;;;;;;;19.95;55.55;97707.41;15292116;19;20007;-54
2022/05/12 01:46:04;;;;;;;1.00;0.60;;;;;;;19.95;55.14;97723.81;15293827;19;20070;-59
2022/05/12 01:51:10;;;;;;;0.95;0.50;;;;;;;19.92;54.92;97724.31;15294131;19;20041;-57
2022/05/12 01:56:18;;;;;;;1.50;0.70;;;;;;;20.06;54.10;97734.97;15298233;19;20015;-61
2022/05/12 02:01:23;;;;;;;1.17;0.60;;;;;;;20.09;54.08;97745.44;15285691;19;20038;-61
2022/05/12 02:06:28;;;;;;;1.50;0.60;;;;;;;19.94;54.80;97765.06;15290356;19;20026;-57
2022/05/12 02:11:36;;;;;;;1.00;0.50;;;;;;;19.93;54.57;97749.75;15290463;19;20030;-59
2022/05/12 02:16:41;;;;;;;1.55;0.50;;;;;;;19.83;55.96;97761.22;15291548;19;20022;-59
2022/05/12 02:21:46;;;;;;;1.35;0.50;;;;;;;19.83;55.87;97763.97;15286339;19;20014;-60
2022/05/12 02:26:55;;;;;;;1.88;0.40;;;;;;;19.74;56.71;97770.88;15283704;19;20039;-54
2022/05/12 02:32:00;;;;;;;1.13;0.43;;;;;;;19.68;57.54;97789.88;15279553;19;20018;-58
2022/05/12 02:37:08;;;;;;;1.38;0.50;;;;;;;19.80;57.23;97800.00;15284777;19;20022;-59
2022/05/12 02:42:16;;;;;;;1.52;0.50;;;;;;;19.61;58.94;97800.06;15284689;19;20021;-54
2022/05/12 02:47:20;;;;;;;2.08;0.50;;;;;;;19.65;58.96;97812.22;15277080;19;20018;-61
2022/05/12 02:52:25;;;;;;;5.55;0.65;;;;;;;19.80;59.46;97821.88;15285508;19;20401;-59
2022/05/12 02:57:33;;;;;;;4.93;0.50;;;;;;;19.78;60.48;97832.19;15283785;19;20010;-59
2022/05/12 03:02:38;;;;;;;1.88;0.50;;;;;;;19.77;61.42;97847.75;15283658;19;20007;-59
2022/05/12 03:07:44;;;;;;;3.13;0.52;;;;;;;19.76;62.49;97845.25;15279632;19;20014;-59
2022/05/12 03:12:52;;;;;;;2.15;0.70;;;;;;;19.78;63.44;97843.94;15277450;19;20055;-61
2022/05/12 03:17:58;;;;;;;1.38;0.60;;;;;;;19.67;64.47;97851.06;15289013;19;20039;-55
2022/05/12 03:23:03;;;;;;;0.73;0.50;;;;;;;19.63;65.31;97844.41;15287832;19;20506;-59
2022/05/12 03:28:12;;;;;;;0.88;0.45;;;;;;;19.31;69.66;97871.13;15290315;19;20018;-58
2022/05/12 03:33:17;;;;;;;3.50;0.90;;;;;;;18.35;100.00;97924.28;15284207;19;20031;-57
2022/05/12 03:38:23;;;;;;;3.63;0.90;;;;;;;17.71;100.00;97940.66;15279869;19;20014;-58
2022/05/12 03:48:48;;;;;;;3.22;1.13;;;;;;;16.93;100.00;97972.41;15287627;19;20076;-59
2022/05/12 03:53:53;;;;;;;5.65;1.23;;;;;;;16.69;100.00;97990.25;15286945;19;20033;-60
2022/05/12 03:59:03;;;;;;;3.65;1.20;;;;;;;16.54;100.00;98001.34;15288375;19;20534;-60
2022/05/12 04:04:09;;;;;;;3.00;1.30;;;;;;;16.30;100.00;98023.50;15286888;19;20023;-57
2022/05/12 04:09:15;;;;;;;3.60;1.30;;;;;;;16.14;100.00;98034.78;15281856;19;20097;-58
2022/05/12 04:14:23;;;;;;;6.30;1.30;;;;;;;15.96;100.00;98052.50;15284683;19;20036;-57
2022/05/12 04:19:29;;;;;;;3.83;1.30;;;;;;;15.91;100.00;98055.03;15281251;19;20015;-58
2022/05/12 04:24:34;;;;;;;7.10;1.38;;;;;;;15.86;100.00;98069.22;15281487;19;20383;-60
2022/05/12 04:29:44;;;;;;;9.00;1.30;;;;;;;15.85;100.00;98085.72;15282399;19;20825;-56
2022/05/12 04:40:10;;;;;;;3.03;1.20;;;;;;;15.82;100.00;98091.50;15277588;19;20015;-58
2022/05/12 04:45:21;;;;;;;6.05;1.30;;;;;;;15.81;100.00;98092.56;15284848;19;20483;-59
2022/05/12 04:50:29;;;;;;;3.38;1.10;;;;;;;15.85;100.00;98100.16;15274106;19;20010;-58
2022/05/12 04:55:35;;;;;;;3.88;1.20;;;;;;;15.91;100.00;98108.50;15284653;19;20014;-59
2022/05/12 05:00:45;;;;;;;3.17;1.20;;;;;;;15.89;100.00;98125.00;15282123;19;20088;-58
2022/05/12 05:05:51;;;;;;;3.40;1.35;;;;;;;15.85;100.00;98140.03;15292273;19;20029;-60
2022/05/12 05:10:56;;;;;;;3.63;1.40;;;;;;;15.78;100.00;98150.00;15292044;19;20021;-59
2022/05/12 05:16:04;;;;;;;6.40;1.02;;;;;;;15.72;100.00;98163.34;15285181;19;20032;-58
2022/05/12 05:21:10;;;;;;;4.75;1.17;;;;;;;15.77;100.00;98167.34;15286424;19;20031;-59
2022/05/12 05:26:15;;;;;;;4.68;1.20;;;;;;;15.86;100.00;98175.16;15297816;19;20015;-57
2022/05/12 05:31:23;;;;;;;3.20;1.10;;;;;;;15.84;100.00;98200.78;15295422;19;20014;-58
2022/05/12 05:36:28;;;;;;;2.30;1.05;;;;;;;15.74;100.00;98205.75;15290754;19;20015;-56
2022/05/12 05:41:35;;;;;;;2.92;1.30;;;;;;;15.76;100.00;98211.84;15288952;19;20010;-57
2022/05/12 05:46:42;;;;;;;5.65;1.38;;;;;;;15.74;100.00;98235.63;15287002;19;20102;-58
2022/05/12 05:57:05;;;;;;;3.25;1.48;;;;;;;15.68;100.00;98246.28;15290355;19;20018;-55
2022/05/12 06:02:13;;;;;;;4.20;1.20;;;;;;;15.63;100.00;98273.16;15290858;19;20479;-58
2022/05/12 06:07:18;;;;;;;4.18;1.20;;;;;;;15.44;100.00;98276.59;15289885;19;20027;-58
2022/05/12 06:12:23;;;;;;;2.45;1.00;;;;;;;15.40;100.00;98279.69;15283683;19;20033;-60
2022/05/12 06:17:33;;;;;;;1.40;0.60;;;;;;;15.17;100.00;98336.88;15289729;19;20479;-59
2022/05/12 06:22:39;;;;;;;1.50;0.60;;;;;;;15.07;100.00;98317.34;15282648;19;20010;-59
2022/05/12 06:27:45;;;;;;;2.28;0.68;;;;;;;15.04;100.00;98325.91;15292070;19;20019;-54
2022/05/12 06:32:56;;;;;;;4.40;0.70;;;;;;;15.12;100.00;98341.19;15288140;19;20035;-58
2022/05/12 06:38:01;;;;;;;1.55;0.63;;;;;;;15.09;100.00;98353.28;15287479;19;20014;-59
2022/05/12 06:43:07;;;;;;;4.28;0.63;;;;;;;15.01;100.00;98353.41;15283435;19;20018;-60
2022/05/12 06:48:16;;;;;;;3.05;0.50;;;;;;;14.88;100.00;98356.78;15285881;19;20481;-58
2022/05/12 06:53:21;;;;;;;3.67;0.60;;;;;;;14.85;100.00;98374.28;15282326;19;20019;-58
2022/05/12 06:58:28;;;;;;;1.73;0.70;;;;;;;14.87;100.00;98376.84;15285595;19;20007;-58
2022/05/12 07:03:36;;;;;;;1.25;0.52;;;;;;;14.88;100.00;98395.63;15289243;19;20018;-53
2022/05/12 07:08:43;;;;;;;1.25;0.60;;;;;;;14.92;100.00;98385.22;15290675;19;20474;-60
2022/05/12 07:13:48;;;;;;;3.38;0.63;;;;;;;15.07;100.00;98399.59;15281898;19;20019;-59
2022/05/12 07:18:56;;;;;;;2.10;0.60;;;;;;;15.08;100.00;98401.28;15280134;19;20018;-59
2022/05/12 07:29:34;;;;;;;2.20;0.75;;;;;;;15.34;100.00;98404.47;15286814;19;20027;-55
2022/05/12 07:34:42;;;;;;;3.53;0.50;;;;;;;15.49;100.00;98412.56;15282654;19;20019;-59
2022/05/12 07:39:47;;;;;;;0.82;0.47;;;;;;;15.75;100.00;98427.44;15285490;19;20022;-56
2022/05/12 07:44:54;;;;;;;2.03;0.73;;;;;;;15.75;100.00;98411.16;15291004;19;20037;-58
2022/05/12 07:50:02;;;;;;;3.05;0.70;;;;;;;15.98;100.00;98411.81;15290015;19;20027;-60
2022/05/12 07:55:09;;;;;;;1.70;0.73;;;;;;;16.11;100.00;98431.97;15277745;19;20014;-60
2022/05/12 08:00:16;;;;;;;1.30;0.60;;;;;;;16.15;100.00;98431.38;15285819;19;20027;-56
2022/05/12 08:05:24;;;;;;;1.95;0.88;;;;;;;16.36;100.00;98435.06;15287264;19;20029;-57
2022/05/12 08:10:29;;;;;;;3.10;0.75;;;;;;;16.31;100.00;98422.06;15281927;19;20028;-59
2022/05/12 08:15:34;;;;;;;1.48;0.60;;;;;;;16.45;100.00;98442.06;15283517;19;20022;-57
2022/05/12 08:20:42;;;;;;;2.50;0.60;;;;;;;16.57;100.00;98438.78;15279573;19;20018;-58
2022/05/12 08:25:48;;;;;;;2.20;0.70;;;;;;;16.67;100.00;98452.00;15284250;19;20014;-55
2022/05/12 08:30:55;;;;;;;3.13;0.75;;;;;;;16.75;100.00;98458.13;15285834;19;20014;-56
2022/05/12 08:36:04;;;;;;;2.80;0.70;;;;;;;16.82;100.00;98460.88;15299074;19;20027;-59
2022/05/12 08:41:19;;;;;;;1.48;0.80;;;;;;;16.91;100.00;98467.84;15297897;19;20018;-56
2022/05/12 08:46:27;;;;;;;3.55;0.80;;;;;;;16.96;100.00;98463.72;15300161;19;20022;-59
2022/05/12 08:51:38;;;;;;;2.10;0.77;;;;;;;17.00;100.00;98481.31;15294747;19;20648;-58
2022/05/12 08:56:44;;;;;;;0.97;0.60;;;;;;;16.98;100.00;98491.56;15299359;19;20360;-55
2022/05/12 09:02:01;;;;;;;1.52;0.70;;;;;;;17.05;100.00;98470.66;15289149;19;20029;-56
2022/05/12 09:07:18;;;;;;;3.42;0.70;;;;;;;17.30;100.00;98486.47;15295448;19;20015;-58
2022/05/12 09:12:35;;;;;;;1.55;0.70;;;;;;;17.30;98.10;98481.03;15291794;19;20122;-61
2022/05/12 09:17:46;;;;;;;2.17;0.77;;;;;;;17.48;100.00;98492.19;15295816;19;20017;-59
2022/05/12 09:22:54;;;;;;;;;;;;;;;17.49;100.00;98493.88;15289856;19;21075;-59
2022/05/12 09:27:59;;;;;;;3.67;0.90;;;;;;;17.41;100.00;98489.44;15293677;19;19990;-56
2022/05/12 09:33:06;;;;;;;2.55;0.70;;;;;;;17.55;100.00;98501.25;15286316;19;20014;-59
2022/05/12 09:38:26;;;;;;;1.95;0.65;;;;;;;17.44;100.00;98500.97;15293041;19;20649;-61
2022/05/12 09:43:34;;;;;;;1.60;0.63;;;;;;;17.66;99.90;98493.53;15289873;19;20035;-59
2022/05/12 09:48:41;;;;;;;1.63;0.63;;;;;;;17.77;96.78;98501.09;15294843;19;20010;-55
2022/05/12 09:53:50;;;;;;;4.10;0.68;;;;;;;17.82;100.00;98489.56;15290797;19;20020;-59
2022/05/12 09:59:07;;;;;;;1.17;0.60;;;;;;;17.72;92.24;98495.41;15289649;19;20408;-60
2022/05/12 10:09:37;;;;;;;2.47;0.70;;;;;;;17.70;92.50;98500.22;15294897;19;20011;-54
2022/05/12 10:14:49;;;;;;;1.27;0.70;;;;;;;17.69;91.43;98493.94;15290827;19;20298;-57
2022/05/12 10:19:55;;;;;;;2.28;0.47;;;;;;;17.72;94.94;98487.22;15290452;19;20825;-57
2022/05/12 10:25:18;;;;;;;1.48;0.70;;;;;;;17.83;98.28;98483.91;15293859;19;20622;-57
2022/05/12 10:30:37;;;;;;;2.10;0.70;;;;;;;17.90;90.48;98494.00;15291757;19;20018;-55
2022/05/12 10:35:50;;;;;;;2.70;0.73;;;;;;;18.07;93.00;98476.19;15291985;19;20027;-59
2022/05/12 10:41:02;;;;;;;3.50;0.65;;;;;;;18.27;87.92;98480.84;15284738;19;20014;-56
2022/05/12 10:46:13;;;;;;;2.75;0.82;;;;;;;18.52;91.81;98489.22;15289389;19;20711;-55
2022/05/12 10:51:29;;;;;;;3.10;0.60;;;;;;;18.63;86.29;98482.28;15287854;19;20017;-56
2022/05/12 10:56:44;;;;;;;3.78;0.70;;;;;;;18.65;78.08;98488.34;15288454;19;20022;-58
2022/05/12 11:01:55;;;;;;;3.40;0.60;;;;;;;18.91;83.87;98487.47;15284937;19;20087;-57
2022/05/12 11:07:08;;;;;;;2.00;0.75;;;;;;;19.00;79.66;98471.72;15287517;19;20121;-56
2022/05/12 11:12:25;;;;;;;4.95;0.80;;;;;;;19.11;73.27;98472.94;15281682;19;20011;-56
2022/05/12 11:17:38;;;;;;;1.10;0.52;;;;;;;19.07;78.64;98471.69;15288688;19;20119;-58
2022/05/12 11:22:52;;;;;;;1.98;0.65;;;;;;;19.24;81.81;98470.16;15265306;19;20007;-61
2022/05/12 11:33:35;;;;;;;0.68;0.40;;;;;;;19.29;75.02;98457.75;15281599;19;20035;-57
2022/05/12 11:38:48;;;;;;;1.75;0.60;;;;;;;19.58;76.30;98460.97;15289047;19;20019;-55
2022/05/12 11:44:26;;;;;;;3.53;0.60;;;;;;;19.50;70.07;98470.25;15277710;19;20081;-60
2022/05/12 11:49:54;;;;;;;3.55;0.63;;;;;;;19.51;66.79;98471.94;15293476;19;20041;-58
2022/05/12 11:55:06;;;;;;;1.35;0.55;;;;;;;19.62;64.93;98467.69;15293103;19;20019;-61
2022/05/12 12:00:36;;;;;;;1.67;0.60;;;;;;;19.80;67.71;98453.28;15292228;19;20031;-57
2022/05/12 12:06:03;;;;;;;1.52;0.70;;;;;;;19.87;65.97;98462.28;15303920;19;20053;-58
2022/05/12 12:11:29;;;;;;;3.08;0.80;;;;;;;19.97;62.29;98459.06;15310734;19;20010;-58
2022/05/12 12:17:10;;;;;;;5.10;0.70;;;;;;;19.86;61.17;98453.25;15307175;19;20054;-60
2022/05/12 12:22:23;;;;;;;2.28;0.60;;;;;;;19.50;59.79;98451.13;15307072;19;20014;-58
2022/05/12 12:27:57;;;;;;;0.73;0.40;;;;;;;20.01;60.87;98447.47;15300427;19;20027;-61
2022/05/12 12:33:41;;;;;;;1.70;0.70;;;;;;;20.22;61.34;98445.41;15303399;19;20014;-60
2022/05/12 12:39:12;;;;;;;4.30;0.77;;;;;;;20.37;59.13;98439.59;15301668;19;20371;-59
2022/05/12 12:44:24;;;;;;;1.73;0.60;;;;;;;20.16;57.72;98441.66;15297447;19;20011;-61
2022/05/12 12:49:32;;;;;;;4.32;0.60;;;;;;;20.40;60.54;98435.59;15298557;19;20018;-60
2022/05/12 13:00:06;;;;;;;3.08;0.60;;;;;;;20.48;55.91;98438.03;15307850;19;20328;-53
2022/05/12 13:05:21;;;;;;;1.50;0.50;;;;;;;20.60;56.93;98436.22;15314454;19;20013;-57
2022/05/12 13:10:33;;;;;;;1.92;0.43;;;;;;;20.80;57.22;98424.22;15312800;19;20034;-58
2022/05/12 13:15:41;;;;;;;1.65;0.50;;;;;;;20.53;55.55;98429.13;15310470;19;20050;-56
2022/05/12 13:20:49;;;;;;;2.22;0.60;;;;;;;20.59;56.66;98423.59;15304763;19;20070;-58
2022/05/12 13:26:01;;;;;;;2.38;0.65;;;;;;;20.86;55.96;98417.88;15308624;19;20094;-55
2022/05/12 13:31:16;;;;;;;;;;;;;;;20.92;54.58;98419.66;15304932;19;20018;-58
2022/05/12 13:36:26;;;;;;;3.25;0.60;;;;;;;21.25;53.69;98414.84;15309075;19;19986;-56
2022/05/12 13:41:38;;;;;;;2.15;0.60;;;;;;;21.17;52.78;98418.75;15303199;19;20014;-60
2022/05/12 13:46:51;;;;;;;1.48;0.50;;;;;;;20.99;52.70;98410.56;15303424;19;20367;-62
2022/05/12 13:51:58;;;;;;;1.38;0.57;;;;;;;21.21;54.33;98405.41;15300282;19;20018;-59
2022/05/12 13:57:24;;;;;;;1.40;0.60;;;;;;;21.28;50.03;98394.38;15308266;19;20447;-58
2022/05/12 14:02:38;;;;;;;1.80;0.60;;;;;;;21.47;51.20;98398.72;15318821;19;20023;-59
2022/05/12 14:07:44;;;;;;;1.20;0.50;;;;;;;21.66;50.53;98405.00;15371857;19;20007;-59
2022/05/12 14:23:31;;;;;;;1.40;0.57;;;;;;;22.64;50.17;98387.31;15375076;19;20031;-59
2022/05/12 14:28:38;;;;;;;1.48;0.55;;;;;;;22.79;49.10;98397.84;15378653;19;20011;-59
2022/05/12 14:33:46;;;;;;;1.98;0.68;;;;;;;22.35;48.79;98389.97;15371806;19;20043;-58
2022/05/12 14:39:07;;;;;;;1.95;0.60;;;;;;;22.52;47.21;98397.50;15376254;19;20018;-59
2022/05/12 14:44:28;;;;;;;1.58;0.52;;;;;;;22.69;48.23;98390.19;15372301;19;20050;-59
2022/05/12 14:49:48;;;;;;;1.85;0.50;;;;;;;22.59;47.33;98379.00;15372987;19;20017;-60
2022/05/12 14:54:55;;;;;;;0.65;0.40;;;;;;;22.99;46.72;98371.84;15370948;19;20686;-60
2022/05/12 15:00:02;;;;;;;0.80;0.47;;;;;;;22.83;46.94;98381.69;15378177;19;20011;-59
2022/05/12 15:05:10;;;;;;;2.85;0.52;;;;;;;23.46;46.84;98376.38;15379865;19;20047;-59
2022/05/12 15:10:17;;;;;;;1.92;0.70;;;;;;;23.11;46.32;98386.41;15354063;19;20042;-63
2022/05/12 15:15:29;;;;;;;0.93;0.50;;;;;;;23.33;45.20;98375.59;15370430;19;20003;-59
2022/05/12 15:20:36;;;;;;;1.00;0.43;;;;;;;23.60;46.35;98377.72;15374431;19;20021;-59
2022/05/12 15:25:52;;;;;;;1.42;0.50;;;;;;;22.79;46.27;98378.59;15372837;19;20047;-59
2022/05/12 15:31:02;;;;;;;0.90;0.50;;;;;;;22.67;46.99;98380.53;15372066;19;20003;-59
2022/05/12 15:36:08;;;;;;;1.80;0.68;;;;;;;22.98;46.21;98376.53;15375824;19;20006;-59
2022/05/12 15:41:19;;;;;;;1.77;0.52;;;;;;;22.62;45.13;98378.53;15375200;19;19999;-61
2022/05/12 15:46:37;;;;;;;0.82;0.35;;;;;;;23.00;45.97;98365.28;15374435;19;20038;-61
2022/05/12 15:51:55;;;;;;;1.30;0.50;;;;;;;22.51;47.00;98371.97;15374024;19;20017;-59
2022/05/12 15:57:04;;;;;;;1.75;0.43;;;;;;;22.54;44.95;98371.47;15368321;19;20021;-52
2022/05/12 16:02:16;;;;;;;1.20;0.50;;;;;;;23.03;44.97;98368.38;15365823;19;20017;-59
2022/05/12 16:12:51;;;;;;;1.33;0.50;;;;;;;22.01;46.91;98376.00;15356562;19;20006;-55
2022/05/12 16:18:00;;;;;;;1.40;0.50;;;;;;;22.11;47.40;98378.16;15360591;19;20039;-63
2022/05/12 16:45:23;;;;;;;2.17;0.60;;;;;;;22.35;45.04;98361.66;15369625;19;19971;-60
2022/05/12 16:50:30;;;;;;;0.80;0.40;;;;;;;22.76;44.90;98349.69;15371336;19;19999;-57
2022/05/12 16:55:42;;;;;;;1.42;0.45;;;;;;;22.98;44.22;98343.56;15382176;19;20042;-58
2022/05/12 17:00:49;;;;;;;2.35;0.60;;;;;;;22.65;44.94;98347.00;15380666;19;20280;-58
2022/05/12 17:06:15;;;;;;;1.35;0.50;;;;;;;22.50;45.08;98356.56;15382133;19;20013;-64
2022/05/12 17:11:22;;;;;;;1.50;0.65;;;;;;;22.29;46.04;98341.50;15384581;19;20022;-59
2022/05/12 17:16:27;;;;;;;1.05;0.50;;;;;;;22.19;46.31;98344.03;15379425;19;20015;-61
2022/05/12 17:21:36;;;;;;;2.20;0.65;;;;;;;22.25;47.54;98352.13;15377587;19;20039;-58
2022/05/12 17:26:50;;;;;;;1.88;0.60;;;;;;;21.93;47.94;98349.75;15382079;19;20007;-63
2022/05/12 17:32:15;;;;;;;0.70;0.40;;;;;;;21.37;49.32;98354.59;15375959;19;20013;-61
2022/05/12 17:37:34;;;;;;;1.00;0.55;;;;;;;20.99;50.39;98350.31;15371958;19;20833;-62
2022/05/12 17:43:03;;;;;;;0.88;0.60;;;;;;;20.61;50.31;98353.03;15377881;19;20010;-59
2022/05/12 17:48:16;;;;;;;1.52;0.55;;;;;;;20.30;51.25;98348.53;15383175;19;20015;-58
2022/05/12 17:53:31;;;;;;;2.30;0.50;;;;;;;19.96;52.09;98348.03;15381707;19;20014;-59
2022/05/12 18:04:00;;;;;;;1.38;0.52;;;;;;;19.33;52.30;98356.03;15373351;19;20082;-59
2022/05/12 18:09:06;;;;;;;1.83;0.60;;;;;;;19.19;52.91;98377.13;15369439;19;20044;-58
2022/05/12 18:14:15;;;;;;;1.45;0.68;;;;;;;19.00;53.93;98372.59;15323898;19;20002;-58
2022/05/12 18:19:31;;;;;;;2.33;0.52;;;;;;;18.86;54.76;98367.16;15313813;19;20014;-60
2022/05/12 18:24:36;;;;;;;2.17;0.60;;;;;;;18.78;54.95;98370.16;15322205;19;20369;-59
2022/05/12 18:29:43;;;;;;;1.52;0.60;;;;;;;18.68;54.91;98376.06;15366923;19;20035;-61
2022/05/12 18:34:51;;;;;;;2.65;0.68;;;;;;;18.52;57.13;98388.28;15375314;19;20006;-60
2022/05/12 18:40:14;;;;;;;1.55;0.60;;;;;;;18.30;60.19;98382.22;15374960;19;20038;-59
2022/05/12 18:45:19;;;;;;;1.27;0.52;;;;;;;18.21;64.46;98388.97;15368574;19;20002;-60
2022/05/12 18:50:48;;;;;;;2.72;0.60;;;;;;;18.08;71.22;98392.56;15370619;19;20003;-64
2022/05/12 19:01:37;;;;;;;2.28;0.70;;;;;;;17.69;70.07;98395.03;15372739;19;19967;-58
2022/05/12 19:06:46;;;;;;;2.45;0.70;;;;;;;17.56;70.90;98398.56;15373124;19;20011;-58
2022/05/12 19:11:51;;;;;;;1.88;0.80;;;;;;;17.50;70.62;98419.28;15369796;19;20006;-60
2022/05/12 19:16:56;;;;;;;2.80;0.70;;;;;;;17.45;71.10;98413.63;15356998;19;20026;-59
2022/05/12 19:22:03;;;;;;;0.80;0.70;;;;;;;17.41;70.66;98425.97;15354404;19;20014;-59
2022/05/12 19:27:08;;;;;;;4.80;0.70;;;;;;;17.38;70.80;98426.38;15292920;19;20018;-60
2022/05/12 19:32:14;;;;;;;2.33;0.50;;;;;;;17.29;72.60;98427.63;15279194;19;20499;-60
2022/05/12 19:37:22;;;;;;;2.65;0.60;;;;;;;17.26;76.10;98434.31;15282041;19;20121;-62
2022/05/12 19:42:27;;;;;;;3.40;0.60;;;;;;;17.19;79.62;98431.56;15280000;19;20018;-61
2022/05/12 19:47:32;;;;;;;1.45;0.80;;;;;;;17.07;84.85;98425.88;15278487;19;20796;-61
2022/05/12 19:52:40;;;;;;;2.35;0.68;;;;;;;17.02;85.40;98424.78;15280892;19;20031;-62
2022/05/12 19:57:45;;;;;;;1.02;0.60;;;;;;;16.91;87.80;98424.31;15279370;19;20019;-60
2022/05/12 20:02:51;;;;;;;1.65;0.60;;;;;;;16.84;87.55;98423.44;15278229;19;20031;-57
2022/05/12 20:08:01;;;;;;;1.33;0.57;;;;;;;16.81;86.76;98421.13;15280867;19;20027;-56
2022/05/12 20:13:07;;;;;;;2.53;0.70;;;;;;;16.77;85.65;98428.00;15279035;19;20042;-59
2022/05/12 20:18:13;;;;;;;0.95;0.50;;;;;;;16.75;82.41;98422.75;15274830;19;20006;-58
2022/05/12 20:23:20;;;;;;;0.93;0.60;;;;;;;16.68;85.41;98415.59;15285216;19;20201;-55
2022/05/12 20:28:25;;;;;;;1.85;0.50;;;;;;;16.60;86.40;98414.75;15294354;19;20035;-56
2022/05/12 20:33:30;;;;;;;1.38;0.63;;;;;;;16.57;82.99;98415.13;15288665;19;20620;-57
2022/05/12 20:38:38;;;;;;;1.08;0.45;;;;;;;16.55;86.26;98413.66;15294737;19;20027;-58
2022/05/12 20:43:43;;;;;;;3.97;0.70;;;;;;;16.47;85.98;98409.22;15289022;19;20018;-56
2022/05/12 20:48:51;;;;;;;1.40;0.70;;;;;;;16.34;90.41;98412.69;15294461;19;20015;-58
2022/05/12 20:53:59;;;;;;;1.73;0.80;;;;;;;16.12;99.96;98420.06;15284487;19;20052;-59
2022/05/12 20:59:06;;;;;;;2.70;0.60;;;;;;;16.03;93.05;98419.34;15292850;19;20014;-54
2022/05/12 21:04:11;;;;;;;1.50;0.70;;;;;;;16.00;89.52;98420.59;15290298;19;20022;-57
2022/05/12 21:09:19;;;;;;;1.17;0.60;;;;;;;15.99;87.07;98413.47;15291794;19;20027;-58
2022/05/12 21:14:23;;;;;;;2.92;0.60;;;;;;;15.96;92.16;98424.72;15288135;19;20014;-57
2022/05/12 21:19:28;;;;;;;2.17;0.60;;;;;;;15.82;96.67;98439.19;15293392;19;20065;-58
2022/05/12 21:24:36;;;;;;;3.00;0.68;;;;;;;15.79;98.09;98443.16;15282757;19;20015;-60
2022/05/12 21:29:41;;;;;;;1.48;0.60;;;;;;;15.71;100.00;98443.28;15289614;19;20079;-58
2022/05/12 21:34:46;;;;;;;1.50;0.70;;;;;;;15.69;100.00;98446.22;15283775;19;20396;-58
2022/05/12 21:39:54;;;;;;;2.00;0.75;;;;;;;15.63;100.00;98449.69;15293095;19;20014;-54
2022/05/12 21:50:17;;;;;;;1.05;0.70;;;;;;;15.49;100.00;98429.72;15288469;19;20018;-55
2022/05/12 21:55:26;;;;;;;1.98;0.70;;;;;;;15.39;100.00;98424.59;15285354;19;20448;-59
2022/05/12 22:05:57;;;;;;;2.92;0.70;;;;;;;15.23;100.00;98422.09;15285173;19;20010;-60
2022/05/12 22:11:04;;;;;;;1.65;0.70;;;;;;;15.16;100.00;98424.75;15288874;19;20082;-60
2022/05/12 22:16:10;;;;;;;2.22;0.50;;;;;;;14.96;100.00;98416.38;15285091;19;20069;-60
2022/05/12 22:21:15;;;;;;;4.63;0.82;;;;;;;14.89;100.00;98418.16;15289005;19;20380;-57
2022/05/12 22:26:24;;;;;;;1.23;0.70;;;;;;;14.79;100.00;98422.00;15285177;19;20006;-60
2022/05/12 22:31:29;;;;;;;1.10;0.50;;;;;;;14.69;100.00;98416.03;15279130;19;20022;-60
2022/05/12 22:36:35;;;;;;;3.65;0.70;;;;;;;14.72;100.00;98422.94;15286753;19;20112;-59
2022/05/12 22:41:44;;;;;;;1.98;0.80;;;;;;;14.75;100.00;98422.56;15288145;19;20331;-60
2022/05/12 22:46:49;;;;;;;2.13;0.98;;;;;;;14.74;100.00;98416.31;15279735;19;20676;-60
2022/05/12 22:51:54;;;;;;;1.33;0.80;;;;;;;14.76;100.00;98416.13;15282676;19;20037;-60
2022/05/12 22:57:01;;;;;;;2.28;0.77;;;;;;;14.75;100.00;98407.16;15287078;19;20014;-59
2022/05/12 23:02:06;;;;;;;1.45;0.70;;;;;;;14.71;100.00;98411.25;15280597;19;20033;-58
2022/05/12 23:07:12;;;;;;;1.75;0.85;;;;;;;14.65;100.00;98411.97;15285612;19;20011;-61
2022/05/12 23:12:19;;;;;;;3.03;0.80;;;;;;;14.52;100.00;98398.25;15283998;19;20019;-57
2022/05/12 23:17:24;;;;;;;1.77;0.88;;;;;;;14.32;100.00;98402.38;15286339;19;20117;-52
2022/05/12 23:22:30;;;;;;;1.83;0.85;;;;;;;14.19;100.00;98423.84;15284135;19;20050;-59
2022/05/12 23:27:37;;;;;;;2.25;0.95;;;;;;;14.07;100.00;98420.72;15279551;19;20504;-59
2022/05/12 23:32:43;;;;;;;1.50;0.70;;;;;;;13.94;100.00;98415.94;15279531;19;20010;-52
2022/05/12 23:37:48;;;;;;;1.98;0.82;;;;;;;13.87;100.00;98423.94;15286519;19;20006;-54
2022/05/12 23:42:56;;;;;;;1.08;0.70;;;;;;;13.81;100.00;98423.84;15280565;19;20014;-60
2022/05/12 23:48:01;;;;;;;2.33;0.77;;;;;;;13.76;100.00;98429.81;15283015;19;20015;-54
2022/05/12 23:53:06;;;;;;;1.15;0.70;;;;;;;13.71;100.00;98419.50;15028021;19;5001988;-58
2022/05/12 23:58:19;;;;;;;1.77;0.80;;;;;;;13.65;100.00;98416.69;15291283;19;20033;-55
